createdAt,value
2022-09-11T00:02:10.948Z,64.52
2022-09-11T00:04:38.809Z,64.66
2022-09-11T00:07:09.572Z,61.26
2022-09-11T00:09:37.632Z,58.14
2022-09-11T00:12:07.617Z,57.42
2022-09-11T00:14:36.135Z,59.51
2022-09-11T00:17:05.219Z,61.05
2022-09-11T00:19:34.308Z,65.58
2022-09-11T00:22:06.135Z,64.29
2022-09-11T00:24:34.110Z,60.95
2022-09-11T00:27:02.380Z,57.98
2022-09-11T00:29:30.492Z,57.31
2022-09-11T00:31:58.825Z,59.11
2022-09-11T00:34:26.750Z,60.40
2022-09-11T00:36:54.863Z,64.88
2022-09-11T00:39:22.791Z,64.83
2022-09-11T00:41:51.855Z,60.96
2022-09-11T00:44:20.404Z,57.67
2022-09-11T00:46:57.212Z,57.52
2022-09-11T00:49:43.281Z,59.25
2022-09-11T00:52:17.116Z,60.90
2022-09-11T00:54:54.323Z,65.26
2022-09-11T00:57:25.586Z,63.40
2022-09-11T00:59:56.988Z,59.78
2022-09-11T01:02:27.620Z,56.55
2022-09-11T01:04:57.566Z,56.89
2022-09-11T01:07:27.268Z,58.78
2022-09-11T01:09:55.942Z,60.46
2022-09-11T01:12:36.531Z,61.38
2022-09-11T01:15:09.605Z,65.53
2022-09-11T01:17:58.231Z,64.02
2022-09-11T01:20:47.517Z,60.59
2022-09-11T01:23:25.763Z,57.00
2022-09-11T01:26:35.162Z,57.62
2022-09-11T01:29:03.290Z,59.69
2022-09-11T01:31:58.194Z,60.83
2022-09-11T01:34:46.228Z,65.72
2022-09-11T01:37:18.932Z,62.98
2022-09-11T01:39:54.003Z,59.51
2022-09-11T01:42:23.458Z,56.59
2022-09-11T01:44:59.940Z,57.29
2022-09-11T01:47:29.469Z,58.38
2022-09-11T01:50:06.347Z,60.26
2022-09-11T01:52:40.462Z,59.90
2022-09-11T01:55:17.150Z,65.88
2022-09-11T01:57:53.373Z,65.53
2022-09-11T02:00:23.941Z,61.71
2022-09-11T02:03:58.758Z,58.37
2022-09-11T02:07:16.610Z,58.74
2022-09-11T02:10:03.038Z,60.54
2022-09-11T02:12:40.977Z,64.97
2022-09-11T02:15:09.983Z,63.36
2022-09-11T02:17:54.744Z,60.09
2022-09-11T02:20:28.931Z,56.44
2022-09-11T02:22:59.001Z,56.49
2022-09-11T02:25:28.463Z,58.70
2022-09-11T02:27:57.762Z,60.23
2022-09-11T02:30:25.695Z,61.70
2022-09-11T02:37:31.577Z,63.00
2022-09-11T02:40:32.259Z,59.17
2022-09-11T02:43:06.453Z,56.43
2022-09-11T02:45:49.253Z,57.90
2022-09-11T02:48:37.090Z,59.77
2022-09-11T02:51:15.789Z,60.97
2022-09-11T02:54:08.342Z,65.29
2022-09-11T02:57:04.980Z,63.92
2022-09-11T02:59:38.631Z,60.40
2022-09-11T03:02:10.754Z,56.84
2022-09-11T03:04:39.003Z,56.68
2022-09-11T03:07:06.857Z,58.39
2022-09-11T03:09:35.080Z,60.84
2022-09-11T03:12:10.355Z,65.35
2022-09-11T03:14:38.643Z,64.61
2022-09-11T03:17:06.632Z,61.87
2022-09-11T03:19:36.702Z,60.53
2022-09-11T03:22:04.751Z,58.20
2022-09-11T03:24:34.273Z,58.49
2022-09-11T03:27:02.344Z,59.40
2022-09-11T03:29:32.971Z,60.78
2022-09-11T03:32:01.403Z,64.85
2022-09-11T03:34:33.022Z,65.09
2022-09-11T03:37:02.268Z,62.38
2022-09-11T03:39:30.727Z,61.19
2022-09-11T03:42:01.242Z,59.96
2022-09-11T03:44:30.263Z,58.68
2022-09-11T03:46:58.196Z,58.81
2022-09-11T03:49:30.246Z,61.03
2022-09-11T03:51:58.054Z,66.02
2022-09-11T03:54:32.878Z,66.74
2022-09-11T03:57:01.626Z,62.96
2022-09-11T03:59:31.314Z,61.14
2022-09-11T04:01:59.467Z,59.52
2022-09-11T04:04:28.274Z,58.19
2022-09-11T04:06:59.366Z,59.23
2022-09-11T04:09:30.581Z,61.21
2022-09-11T04:11:59.782Z,65.75
2022-09-11T04:14:29.158Z,65.04
2022-09-11T04:16:59.710Z,62.20
2022-09-11T04:19:29.941Z,60.53
2022-09-11T04:22:03.167Z,59.57
2022-09-11T04:24:35.342Z,57.44
2022-09-11T04:27:03.668Z,58.40
2022-09-11T04:29:34.168Z,60.05
2022-09-11T04:32:02.689Z,61.44
2022-09-11T04:34:33.433Z,66.43
2022-09-11T04:37:01.642Z,65.28
2022-09-11T04:39:30.783Z,62.87
2022-09-11T04:41:59.214Z,60.86
2022-09-11T04:44:28.499Z,58.08
2022-09-11T04:46:56.838Z,57.97
2022-09-11T04:49:25.325Z,59.44
2022-09-11T04:51:53.387Z,61.40
2022-09-11T04:54:26.498Z,66.08
2022-09-11T04:56:55.055Z,64.54
2022-09-11T04:59:23.897Z,62.09
2022-09-11T05:02:14.101Z,60.74
2022-09-11T05:04:47.128Z,58.26
2022-09-11T05:07:15.627Z,57.89
2022-09-11T05:09:48.856Z,59.94
2022-09-11T05:12:17.867Z,61.32
2022-09-11T05:14:48.205Z,65.54
2022-09-11T05:17:16.510Z,64.84
2022-09-11T05:19:47.448Z,62.43
2022-09-11T05:22:15.904Z,59.98
2022-09-11T05:24:49.301Z,57.01
2022-09-11T05:27:17.776Z,57.06
2022-09-11T05:29:46.567Z,59.13
2022-09-11T05:32:15.919Z,60.80
2022-09-11T05:34:46.678Z,64.95
2022-09-11T05:37:16.472Z,64.02
2022-09-11T05:39:52.566Z,61.78
2022-09-11T05:42:25.043Z,59.83
2022-09-11T05:44:55.157Z,57.05
2022-09-11T05:47:24.444Z,57.69
2022-09-11T05:49:53.449Z,59.92
2022-09-11T05:52:21.446Z,61.13
2022-09-11T05:54:53.731Z,65.20
2022-09-11T05:57:22.587Z,65.38
2022-09-11T05:59:52.027Z,61.66
2022-09-11T06:02:20.948Z,58.56
2022-09-11T06:04:59.013Z,57.90
2022-09-11T06:07:27.091Z,59.53
2022-09-11T06:09:59.703Z,61.19
2022-09-11T06:12:33.782Z,65.51
2022-09-11T06:15:03.429Z,65.05
2022-09-11T06:17:31.499Z,62.94
2022-09-11T06:20:01.262Z,60.47
2022-09-11T06:22:29.946Z,58.22
2022-09-11T06:24:59.789Z,58.66
2022-09-11T06:27:28.365Z,60.55
2022-09-11T06:29:56.389Z,63.66
2022-09-11T06:32:24.310Z,63.94
2022-09-11T06:34:54.576Z,61.27
2022-09-11T06:37:23.961Z,58.34
2022-09-11T06:39:51.984Z,58.61
2022-09-11T06:42:26.279Z,60.19
2022-09-11T06:44:54.572Z,64.71
2022-09-11T06:47:22.823Z,63.81
2022-09-11T06:49:51.006Z,61.09
2022-09-11T06:52:39.169Z,58.21
2022-09-11T06:55:16.620Z,59.03
2022-09-11T06:57:51.334Z,61.01
2022-09-11T07:00:24.192Z,65.66
2022-09-11T07:02:53.250Z,64.75
2022-09-11T07:05:27.325Z,61.58
2022-09-11T07:07:57.485Z,60.00
2022-09-11T07:11:02.478Z,57.21
2022-09-11T07:13:38.517Z,57.55
2022-09-11T07:16:17.735Z,60.16
2022-09-11T07:18:48.914Z,64.57
2022-09-11T07:21:23.232Z,64.26
2022-09-11T07:23:57.661Z,62.29
2022-09-11T07:26:32.821Z,60.88
2022-09-11T07:29:07.282Z,59.57
2022-09-11T07:31:43.159Z,58.99
2022-09-11T07:34:11.805Z,60.58
2022-09-11T07:36:42.677Z,63.40
2022-09-11T07:39:20.731Z,64.13
2022-09-11T07:41:54.115Z,62.46
2022-09-11T07:44:29.016Z,60.58
2022-09-11T07:47:02.616Z,58.13
2022-09-11T07:49:32.633Z,58.09
2022-09-11T07:52:03.776Z,60.60
2022-09-11T07:54:39.826Z,63.59
2022-09-11T07:57:12.712Z,63.39
2022-09-11T07:59:46.625Z,61.53
2022-09-11T08:02:18.294Z,60.34
2022-09-11T08:04:46.242Z,58.27
2022-09-11T08:07:14.434Z,57.85
2022-09-11T08:09:43.598Z,60.52
2022-09-11T08:12:12.121Z,63.02
2022-09-11T08:14:40.713Z,63.41
2022-09-11T08:17:12.437Z,61.21
2022-09-11T08:19:40.812Z,58.95
2022-09-11T08:22:09.046Z,58.06
2022-09-11T08:24:45.657Z,59.85
2022-09-11T08:27:19.479Z,60.86
2022-09-11T08:29:47.858Z,63.54
2022-09-11T08:32:16.634Z,63.59
2022-09-11T08:34:45.627Z,62.34
2022-09-11T08:37:15.496Z,60.73
2022-09-11T08:39:43.783Z,58.29
2022-09-11T08:42:18.997Z,57.95
2022-09-11T08:44:57.493Z,59.63
2022-09-11T08:47:45.821Z,60.46
2022-09-11T08:50:20.533Z,63.56
2022-09-11T08:52:51.151Z,64.55
2022-09-11T08:56:02.697Z,61.06
2022-09-11T08:58:58.598Z,57.23
2022-09-11T09:01:37.298Z,56.55
2022-09-11T09:04:34.349Z,58.61
2022-09-11T09:07:25.188Z,59.50
2022-09-11T09:10:21.899Z,61.47
2022-09-11T09:13:10.997Z,64.93
2022-09-11T09:15:46.271Z,61.47
2022-09-11T09:18:28.463Z,58.09
2022-09-11T09:22:05.704Z,57.33
2022-09-11T09:24:50.717Z,58.20
2022-09-11T09:27:25.079Z,59.92
2022-09-11T09:30:05.854Z,60.59
2022-09-11T09:32:47.775Z,63.87
2022-09-11T09:35:26.764Z,61.88
2022-09-11T09:39:03.496Z,57.98
2022-09-11T09:41:52.746Z,58.68
2022-09-11T09:45:15.568Z,60.41
2022-09-11T09:47:49.528Z,61.53
2022-09-11T09:50:40.415Z,63.52
2022-09-11T09:53:43.481Z,63.09
2022-09-11T09:56:20.556Z,59.51
2022-09-11T09:59:13.246Z,57.38
2022-09-11T10:02:14.040Z,58.10
2022-09-11T10:04:43.338Z,59.66
2022-09-11T10:07:14.345Z,59.25
2022-09-11T10:09:50.908Z,60.19
2022-09-11T10:12:28.203Z,60.57
2022-09-11T10:14:59.179Z,61.52
2022-09-11T10:17:50.398Z,60.59
2022-09-11T10:20:29.256Z,61.94
2022-09-11T10:23:24.643Z,63.35
2022-09-11T10:25:55.255Z,61.56
2022-09-11T10:28:32.232Z,57.72
2022-09-11T10:31:05.735Z,57.13
2022-09-11T10:33:46.827Z,58.47
2022-09-11T10:36:22.988Z,59.44
2022-09-11T10:38:55.657Z,60.69
2022-09-11T10:41:28.543Z,60.93
2022-09-11T10:44:14.856Z,62.09
2022-09-11T10:46:46.650Z,62.98
2022-09-11T10:49:23.572Z,61.94
2022-09-11T10:52:10.237Z,58.48
2022-09-11T10:54:54.371Z,57.58
2022-09-11T10:57:30.180Z,58.82
2022-09-11T11:00:09.473Z,60.42
2022-09-11T11:02:54.580Z,61.47
2022-09-11T11:05:56.291Z,65.05
2022-09-11T11:09:06.595Z,62.13
2022-09-11T11:11:52.185Z,57.06
2022-09-11T11:14:39.003Z,56.35
2022-09-11T11:17:11.257Z,56.47
2022-09-11T11:20:10.876Z,57.60
2022-09-11T11:23:05.601Z,57.35
2022-09-11T11:26:07.636Z,59.25
2022-09-11T11:28:51.993Z,60.69
2022-09-11T11:31:44.534Z,60.88
2022-09-11T11:34:38.608Z,61.83
2022-09-11T11:37:19.023Z,61.99
2022-09-11T11:39:49.334Z,63.07
2022-09-11T11:42:31.527Z,61.22
2022-09-11T11:45:12.917Z,56.87
2022-09-11T11:47:54.199Z,56.68
2022-09-11T11:50:33.717Z,58.18
2022-09-11T11:53:18.458Z,59.62
2022-09-11T11:56:29.996Z,60.95
2022-09-11T11:59:31.475Z,66.49
2022-09-11T12:02:11.910Z,63.17
2022-09-11T12:05:11.262Z,60.36
2022-09-11T12:07:45.096Z,58.35
2022-09-11T12:10:34.557Z,60.14
2022-09-11T12:13:09.518Z,61.47
2022-09-11T12:15:40.065Z,65.41
2022-09-11T12:18:18.163Z,64.46
2022-09-11T12:20:55.537Z,62.90
2022-09-11T12:23:36.874Z,60.16
2022-09-11T12:26:22.777Z,57.81
2022-09-11T12:29:17.048Z,58.78
2022-09-11T12:31:51.342Z,60.74
2022-09-11T12:34:33.935Z,63.55
2022-09-11T12:37:11.926Z,63.73
2022-09-11T12:39:54.861Z,60.38
2022-09-11T12:42:26.411Z,57.99
2022-09-11T12:44:59.773Z,58.26
2022-09-11T12:47:35.349Z,59.49
2022-09-11T12:50:06.786Z,61.90
2022-09-11T12:52:46.958Z,63.84
2022-09-11T12:55:35.698Z,62.09
2022-09-11T12:58:34.398Z,59.22
2022-09-11T13:01:29.371Z,57.55
2022-09-11T13:04:17.447Z,59.31
2022-09-11T13:06:49.119Z,60.40
2022-09-11T13:09:30.329Z,60.61
2022-09-11T13:12:19.386Z,60.92
2022-09-11T13:14:56.300Z,60.66
2022-09-11T13:17:46.974Z,59.40
2022-09-11T13:20:57.200Z,59.50
2022-09-11T13:23:31.656Z,60.06
2022-09-11T13:26:05.458Z,60.06
2022-09-11T13:28:47.439Z,59.96
2022-09-11T13:31:39.120Z,59.66
2022-09-11T13:34:37.149Z,58.97
2022-09-11T13:37:58.955Z,58.70
2022-09-11T13:40:45.559Z,58.16
2022-09-11T13:43:31.668Z,58.61
2022-09-11T13:46:17.044Z,58.57
2022-09-11T13:48:51.067Z,58.44
2022-09-11T13:51:42.706Z,58.82
2022-09-11T13:54:33.767Z,58.60
2022-09-11T13:57:04.700Z,58.68
2022-09-11T13:59:47.540Z,57.49
2022-09-11T14:02:35.172Z,57.06
2022-09-11T14:05:09.953Z,56.97
2022-09-11T14:08:01.234Z,56.36
2022-09-11T14:10:44.603Z,56.86
2022-09-11T14:13:47.458Z,57.39
2022-09-11T14:16:37.614Z,57.25
2022-09-11T14:19:21.124Z,57.92
2022-09-11T14:21:53.262Z,57.88
2022-09-11T14:24:33.320Z,58.65
2022-09-11T14:27:05.043Z,59.10
2022-09-11T14:29:33.849Z,59.06
2022-09-11T14:32:34.561Z,58.76
2022-09-11T14:35:16.117Z,59.05
2022-09-11T14:37:46.225Z,58.29
2022-09-11T14:40:16.539Z,58.20
2022-09-11T14:42:47.653Z,58.35
2022-09-11T14:45:26.566Z,58.93
2022-09-11T14:47:55.826Z,59.28
2022-09-11T14:50:27.602Z,60.04
2022-09-11T14:52:56.496Z,60.77
2022-09-11T14:55:29.219Z,61.56
2022-09-11T14:57:57.360Z,62.13
2022-09-11T15:00:27.392Z,63.20
2022-09-11T15:02:57.202Z,64.09
2022-09-11T15:05:27.506Z,60.05
2022-09-11T15:07:56.117Z,58.52
2022-09-11T15:10:27.938Z,59.28
2022-09-11T15:12:57.209Z,60.91
2022-09-11T15:15:29.294Z,61.18
2022-09-11T15:17:59.581Z,65.12
2022-09-11T15:20:31.427Z,64.84
2022-09-11T15:23:00.834Z,61.60
2022-09-11T15:25:35.000Z,58.22
2022-09-11T15:28:12.617Z,57.04
2022-09-11T15:30:48.958Z,58.26
2022-09-11T15:33:17.253Z,59.29
2022-09-11T15:35:47.821Z,60.86
2022-09-11T15:38:17.830Z,61.87
2022-09-11T15:40:49.036Z,63.93
2022-09-11T15:43:21.391Z,64.10
2022-09-11T15:45:58.311Z,60.00
2022-09-11T15:48:32.901Z,56.90
2022-09-11T15:51:08.302Z,57.20
2022-09-11T15:53:43.158Z,58.85
2022-09-11T15:56:15.964Z,61.29
2022-09-11T15:58:53.137Z,61.72
2022-09-11T16:01:30.165Z,64.74
2022-09-11T16:04:05.365Z,65.24
2022-09-11T16:06:39.053Z,61.71
2022-09-11T16:09:27.915Z,57.85
2022-09-11T16:11:56.812Z,57.59
2022-09-11T16:14:27.478Z,58.42
2022-09-11T16:17:00.842Z,59.97
2022-09-11T16:19:31.640Z,60.84
2022-09-11T16:22:04.990Z,63.72
2022-09-11T16:24:38.153Z,62.20
2022-09-11T16:27:11.364Z,58.33
2022-09-11T16:30:20.228Z,57.66
2022-09-11T16:32:38.631Z,58.39
2022-09-11T16:35:08.957Z,60.23
2022-09-11T16:37:40.769Z,61.35
2022-09-11T16:40:15.137Z,64.17
2022-09-11T16:42:45.007Z,63.72
2022-09-11T16:45:15.888Z,60.93
2022-09-11T16:47:44.856Z,57.69
2022-09-11T16:50:16.926Z,57.09
2022-09-11T16:52:45.723Z,57.82
2022-09-11T16:55:17.707Z,59.51
2022-09-11T16:57:52.323Z,58.67
2022-09-11T17:00:24.474Z,59.68
2022-09-11T17:02:58.878Z,60.63
2022-09-11T17:05:27.471Z,63.13
2022-09-11T17:07:59.072Z,67.15
2022-09-11T17:13:47.561Z,62.22
2022-09-11T17:24:18.097Z,56.92
2022-09-11T17:26:48.191Z,58.04
2022-09-11T17:29:20.863Z,58.48
2022-09-11T17:32:05.055Z,61.41
2022-09-11T17:34:41.645Z,64.62
2022-09-11T17:37:11.572Z,63.00
2022-09-11T17:39:47.157Z,61.24
2022-09-11T17:42:19.242Z,60.09
2022-09-11T17:44:48.835Z,59.57
2022-09-11T17:47:17.012Z,56.00
2022-09-11T17:49:45.745Z,55.89
2022-09-11T17:52:22.172Z,57.13
2022-09-11T17:54:53.818Z,59.13
2022-09-11T17:57:26.239Z,58.46
2022-09-11T17:59:59.421Z,58.90
2022-09-11T18:02:28.297Z,61.15
2022-09-11T18:05:04.274Z,64.83
2022-09-11T18:07:32.997Z,66.39
2022-09-11T18:10:07.416Z,63.30
2022-09-11T18:12:43.781Z,61.12
2022-09-11T18:15:14.355Z,59.60
2022-09-11T18:17:44.970Z,56.88
2022-09-11T18:20:13.054Z,57.18
2022-09-11T18:22:45.709Z,58.17
2022-09-11T18:25:15.028Z,59.66
2022-09-11T18:27:45.228Z,60.56
2022-09-11T18:30:19.901Z,61.17
2022-09-11T18:32:51.296Z,61.55
2022-09-11T18:35:23.858Z,63.56
2022-09-11T18:37:52.461Z,68.75
2022-09-11T18:40:20.952Z,65.77
2022-09-11T18:42:49.315Z,63.01
2022-09-11T18:45:18.025Z,61.31
2022-09-11T18:47:55.314Z,60.03
2022-09-11T18:50:26.899Z,58.00
2022-09-11T18:52:56.667Z,56.74
2022-09-11T18:55:31.313Z,58.03
2022-09-11T18:58:00.988Z,58.26
2022-09-11T19:00:41.586Z,58.85
2022-09-11T19:03:10.977Z,60.46
2022-09-11T19:05:39.409Z,61.28
2022-09-11T19:08:08.301Z,61.53
2022-09-11T19:10:37.301Z,63.48
2022-09-11T19:13:05.463Z,69.10
2022-09-11T19:15:33.776Z,66.78
2022-09-11T19:18:05.406Z,63.74
2022-09-11T19:20:35.721Z,61.36
2022-09-11T19:23:06.688Z,60.03
2022-09-11T19:25:35.587Z,57.89
2022-09-11T19:28:04.831Z,56.89
2022-09-11T19:30:33.039Z,58.01
2022-09-11T19:33:03.553Z,58.63
2022-09-11T19:35:32.958Z,59.93
2022-09-11T19:38:01.956Z,60.56
2022-09-11T19:40:36.305Z,61.98
2022-09-11T19:43:22.910Z,66.03
2022-09-11T19:46:19.546Z,67.34
2022-09-11T19:48:48.603Z,63.94
2022-09-11T19:51:40.350Z,61.78
2022-09-11T19:54:23.332Z,59.80
2022-09-11T19:57:39.765Z,57.52
2022-09-11T20:00:42.615Z,57.75
2022-09-11T20:03:38.116Z,59.03
2022-09-11T20:06:10.854Z,60.57
2022-09-11T20:08:43.429Z,60.74
2022-09-11T20:11:41.955Z,61.24
2022-09-11T20:14:19.400Z,61.69
2022-09-11T20:17:00.551Z,66.13
2022-09-11T20:23:21.118Z,65.47
2022-09-11T20:26:19.388Z,62.67
2022-09-11T20:44:36.844Z,60.14
2022-09-11T20:47:12.661Z,63.10
2022-09-11T20:49:40.606Z,67.48
2022-09-11T20:52:11.357Z,65.81
2022-09-11T20:54:44.218Z,62.50
2022-09-11T20:57:12.552Z,61.33
2022-09-11T20:59:40.904Z,60.20
2022-09-11T21:02:10.168Z,59.67
2022-09-11T21:04:39.271Z,57.35
2022-09-11T21:07:07.233Z,57.66
2022-09-11T21:09:35.524Z,58.06
2022-09-11T21:12:04.934Z,59.67
2022-09-11T21:14:33.005Z,61.88
2022-09-11T21:17:03.455Z,66.14
2022-09-11T21:19:32.154Z,66.17
2022-09-11T21:22:01.461Z,63.98
2022-09-11T21:24:29.333Z,62.72
2022-09-11T21:26:59.447Z,61.69
2022-09-11T21:29:27.332Z,59.55
2022-09-11T21:31:56.766Z,57.43
2022-09-11T21:34:24.773Z,57.06
2022-09-11T21:36:52.845Z,58.99
2022-09-11T21:39:22.235Z,60.04
2022-09-11T21:41:50.377Z,60.96
2022-09-11T21:44:18.373Z,62.56
2022-09-11T21:46:46.480Z,67.01
2022-09-11T21:49:14.327Z,67.03
2022-09-11T21:51:46.560Z,64.28
2022-09-11T21:54:14.509Z,62.39
2022-09-11T21:56:42.904Z,60.78
2022-09-11T21:59:12.221Z,59.56
2022-09-11T22:01:41.626Z,57.61
2022-09-11T22:04:11.314Z,57.71
2022-09-11T22:06:39.211Z,59.50
2022-09-11T22:09:07.034Z,59.01
2022-09-11T22:11:37.976Z,60.21
2022-09-11T22:14:07.785Z,63.37
2022-09-11T22:16:35.710Z,68.41
2022-09-11T22:19:07.319Z,67.17
2022-09-11T22:21:35.098Z,63.95
2022-09-11T22:24:04.244Z,63.14
2022-09-11T22:26:33.883Z,62.07
2022-09-11T22:29:02.101Z,61.97
2022-09-11T22:31:30.159Z,62.10
2022-09-11T22:33:58.208Z,60.46
2022-09-11T22:36:27.899Z,58.08
2022-09-11T22:38:55.913Z,56.95
2022-09-11T22:41:23.939Z,57.98
2022-09-11T22:43:51.883Z,58.82
2022-09-11T22:46:23.927Z,60.13
2022-09-11T22:48:52.769Z,61.31
2022-09-11T22:51:20.758Z,62.90
2022-09-11T22:53:48.589Z,67.99
2022-09-11T22:56:17.244Z,66.15
2022-09-11T22:58:45.797Z,63.24
2022-09-11T23:01:21.721Z,61.49
2022-09-11T23:03:53.122Z,59.50
2022-09-11T23:06:41.616Z,57.10
2022-09-11T23:09:11.910Z,57.43
2022-09-11T23:11:40.103Z,58.80
2022-09-11T23:14:13.282Z,58.63
2022-09-11T23:16:44.643Z,59.67
2022-09-11T23:19:14.043Z,60.94
2022-09-11T23:21:42.019Z,62.14
2022-09-11T23:24:13.466Z,67.71
2022-09-11T23:26:41.740Z,68.19
2022-09-11T23:29:11.841Z,65.56
2022-09-11T23:31:40.111Z,63.89
2022-09-11T23:34:11.378Z,62.32
2022-09-11T23:36:39.254Z,61.48
2022-09-11T23:39:07.139Z,60.72
2022-09-11T23:41:36.695Z,59.50
2022-09-11T23:44:04.690Z,57.30
2022-09-11T23:46:32.633Z,57.11
2022-09-11T23:49:01.936Z,58.08
2022-09-11T23:51:30.034Z,58.40
2022-09-11T23:53:58.540Z,60.76
2022-09-11T23:56:27.815Z,60.16
2022-09-11T23:58:56.299Z,60.45
